createdAt,value
2022-08-16T00:02:22.932Z,84.00
2022-08-16T00:04:50.963Z,84.14
2022-08-16T00:07:17.818Z,84.25
2022-08-16T00:09:44.203Z,83.93
2022-08-16T00:12:10.732Z,84.33
2022-08-16T00:14:37.190Z,83.84
2022-08-16T00:17:16.058Z,84.34
2022-08-16T00:19:45.692Z,85.00
2022-08-16T00:22:15.481Z,83.98
2022-08-16T00:24:44.626Z,83.56
2022-08-16T00:27:12.892Z,83.71
2022-08-16T00:29:39.325Z,83.66
2022-08-16T00:32:07.977Z,83.40
2022-08-16T00:34:44.781Z,83.23
2022-08-16T00:37:20.257Z,83.30
2022-08-16T00:39:57.685Z,83.42
2022-08-16T00:42:30.750Z,83.72
2022-08-16T00:45:14.081Z,83.66
2022-08-16T00:47:49.628Z,83.74
2022-08-16T00:50:21.294Z,83.43
2022-08-16T00:52:50.822Z,83.67
2022-08-16T00:55:19.256Z,83.76
2022-08-16T00:58:00.117Z,83.85
2022-08-16T01:00:29.655Z,84.15
2022-08-16T01:02:57.307Z,84.05
2022-08-16T01:05:25.358Z,84.24
2022-08-16T01:07:53.563Z,84.42
2022-08-16T01:10:32.382Z,84.63
2022-08-16T01:13:21.905Z,84.31
2022-08-16T01:16:01.066Z,84.45
2022-08-16T01:18:41.546Z,84.83
2022-08-16T01:21:33.564Z,84.42
2022-08-16T01:24:52.251Z,84.63
2022-08-16T01:27:25.804Z,84.38
2022-08-16T01:30:19.248Z,84.78
2022-08-16T01:33:01.538Z,84.66
2022-08-16T01:35:39.649Z,84.42
2022-08-16T01:38:28.534Z,84.44
2022-08-16T01:41:02.497Z,84.69
2022-08-16T01:43:31.160Z,84.58
2022-08-16T01:46:00.098Z,84.35
2022-08-16T01:48:47.007Z,84.82
2022-08-16T01:51:16.741Z,84.89
2022-08-16T01:53:43.785Z,85.09
2022-08-16T01:56:24.362Z,84.73
2022-08-16T01:58:54.628Z,84.89
2022-08-16T02:01:21.320Z,84.76
2022-08-16T02:03:50.464Z,84.65
2022-08-16T02:06:33.707Z,85.01
2022-08-16T02:09:01.905Z,84.82
2022-08-16T02:11:48.439Z,85.20
2022-08-16T02:14:21.213Z,85.00
2022-08-16T02:16:48.849Z,84.67
2022-08-16T02:19:18.165Z,84.56
2022-08-16T02:22:09.078Z,84.12
2022-08-16T02:24:42.000Z,84.61
2022-08-16T02:27:09.937Z,84.91
2022-08-16T02:29:36.707Z,84.70
2022-08-16T02:32:49.829Z,84.58
2022-08-16T02:34:51.009Z,84.22
2022-08-16T02:37:22.772Z,84.47
2022-08-16T02:39:54.126Z,84.66
2022-08-16T02:42:20.959Z,84.19
2022-08-16T02:44:47.385Z,84.07
2022-08-16T02:47:24.866Z,84.38
2022-08-16T02:50:52.315Z,84.41
2022-08-16T02:52:38.748Z,84.57
2022-08-16T02:55:05.854Z,85.02
2022-08-16T02:57:32.754Z,84.76
2022-08-16T03:00:03.806Z,84.54
2022-08-16T03:02:47.343Z,84.48
2022-08-16T03:05:23.428Z,84.10
2022-08-16T03:07:50.956Z,84.01
2022-08-16T03:10:19.529Z,83.94
2022-08-16T03:12:56.457Z,83.66
2022-08-16T03:15:23.057Z,83.64
2022-08-16T03:17:53.499Z,84.14
2022-08-16T03:20:20.716Z,83.47
2022-08-16T03:22:58.428Z,84.08
2022-08-16T03:25:25.145Z,84.58
2022-08-16T03:28:09.252Z,84.13
2022-08-16T03:30:37.904Z,84.19
2022-08-16T03:33:05.054Z,84.04
2022-08-16T03:35:34.774Z,84.40
2022-08-16T03:38:04.820Z,84.20
2022-08-16T03:40:51.757Z,83.96
2022-08-16T03:43:19.735Z,83.88
2022-08-16T03:45:47.439Z,84.28
2022-08-16T03:48:15.175Z,84.80
2022-08-16T03:51:00.024Z,84.61
2022-08-16T03:53:37.950Z,85.05
2022-08-16T03:56:07.256Z,85.04
2022-08-16T03:58:34.496Z,84.30
2022-08-16T04:01:04.465Z,84.46
2022-08-16T04:03:31.460Z,84.26
2022-08-16T04:05:57.925Z,84.41
2022-08-16T04:08:27.083Z,84.40
2022-08-16T04:10:55.130Z,84.47
2022-08-16T04:14:01.748Z,84.43
2022-08-16T04:16:27.446Z,84.45
2022-08-16T04:19:01.396Z,84.74
2022-08-16T04:21:34.591Z,84.66
2022-08-16T04:24:01.653Z,84.55
2022-08-16T04:26:30.720Z,84.20
2022-08-16T04:29:15.052Z,84.05
2022-08-16T04:31:56.785Z,84.16
2022-08-16T04:34:27.508Z,83.82
2022-08-16T04:36:54.569Z,83.52
2022-08-16T04:39:23.842Z,84.15
2022-08-16T04:41:56.820Z,84.74
2022-08-16T04:44:52.558Z,84.93
2022-08-16T04:47:21.243Z,84.76
2022-08-16T04:49:50.899Z,84.34
2022-08-16T04:52:33.769Z,84.49
2022-08-16T04:55:17.273Z,84.37
2022-08-16T04:57:46.012Z,84.07
2022-08-16T05:00:31.952Z,84.00
2022-08-16T05:03:10.785Z,84.29
2022-08-16T05:05:55.588Z,84.49
2022-08-16T05:08:29.581Z,84.09
2022-08-16T05:11:10.561Z,84.27
2022-08-16T05:13:40.843Z,84.60
2022-08-16T05:16:16.641Z,84.10
2022-08-16T05:18:47.834Z,84.25
2022-08-16T05:21:14.246Z,83.97
2022-08-16T05:23:40.845Z,83.56
2022-08-16T05:26:19.595Z,83.29
2022-08-16T05:28:55.557Z,83.21
2022-08-16T05:31:23.103Z,83.41
2022-08-16T05:33:53.257Z,83.58
2022-08-16T05:36:21.150Z,83.76
2022-08-16T05:38:48.977Z,84.04
2022-08-16T05:41:16.911Z,84.11
2022-08-16T05:43:47.643Z,83.31
2022-08-16T05:46:28.599Z,83.62
2022-08-16T05:49:00.100Z,83.47
2022-08-16T05:51:35.354Z,83.63
2022-08-16T05:54:05.712Z,84.17
2022-08-16T05:56:32.338Z,83.74
2022-08-16T05:59:00.673Z,83.76
2022-08-16T06:01:27.895Z,83.29
2022-08-16T06:03:59.343Z,83.07
2022-08-16T06:06:29.053Z,83.15
2022-08-16T06:08:55.712Z,82.69
2022-08-16T06:11:22.511Z,83.39
2022-08-16T06:13:52.119Z,82.64
2022-08-16T06:16:22.021Z,82.47
2022-08-16T06:18:53.605Z,82.29
2022-08-16T06:21:23.795Z,82.24
2022-08-16T06:23:54.064Z,81.84
2022-08-16T06:26:21.376Z,82.09
2022-08-16T06:28:47.793Z,81.67
2022-08-16T06:31:16.036Z,81.43
2022-08-16T06:33:44.985Z,82.01
2022-08-16T06:36:14.159Z,81.68
2022-08-16T06:38:55.767Z,81.16
2022-08-16T06:41:24.307Z,80.37
2022-08-16T06:43:54.410Z,80.47
2022-08-16T06:46:33.965Z,80.13
2022-08-16T06:49:01.935Z,80.27
2022-08-16T06:51:45.195Z,79.97
2022-08-16T06:54:14.439Z,80.40
2022-08-16T06:56:42.354Z,79.53
2022-08-16T06:59:10.167Z,79.40
2022-08-16T07:01:45.229Z,79.07
2022-08-16T07:04:31.852Z,79.02
2022-08-16T07:07:00.475Z,78.05
2022-08-16T07:09:29.739Z,77.69
2022-08-16T07:12:03.200Z,78.04
2022-08-16T07:14:30.678Z,77.43
2022-08-16T07:16:58.967Z,76.86
2022-08-16T07:20:01.494Z,75.84
2022-08-16T07:22:38.848Z,75.18
2022-08-16T07:25:00.233Z,73.86
2022-08-16T07:27:27.082Z,73.67
2022-08-16T07:29:55.721Z,73.08
2022-08-16T07:32:29.688Z,72.28
2022-08-16T07:34:57.932Z,71.72
2022-08-16T07:37:24.474Z,72.36
2022-08-16T07:39:51.530Z,71.83
2022-08-16T07:42:20.405Z,70.51
2022-08-16T07:44:55.998Z,71.24
2022-08-16T07:47:24.447Z,70.24
2022-08-16T07:49:58.027Z,69.36
2022-08-16T07:52:24.842Z,69.85
2022-08-16T07:54:57.079Z,67.91
2022-08-16T07:57:24.560Z,67.48
2022-08-16T07:59:51.375Z,66.63
2022-08-16T08:02:20.351Z,66.73
2022-08-16T08:04:47.722Z,65.94
2022-08-16T08:07:14.716Z,66.61
2022-08-16T08:09:43.258Z,66.05
2022-08-16T08:12:10.321Z,65.54
2022-08-16T08:14:57.061Z,66.46
2022-08-16T08:17:23.497Z,64.50
2022-08-16T08:19:53.216Z,64.43
2022-08-16T08:22:22.204Z,64.45
2022-08-16T08:24:49.133Z,64.04
2022-08-16T08:27:22.966Z,63.15
2022-08-16T08:30:50.239Z,63.54
2022-08-16T08:32:57.970Z,62.52
2022-08-16T08:35:26.950Z,61.36
2022-08-16T08:37:56.531Z,60.06
2022-08-16T08:40:26.728Z,59.79
2022-08-16T08:43:00.824Z,59.38
2022-08-16T08:45:48.522Z,59.20
2022-08-16T08:48:33.372Z,59.68
2022-08-16T08:51:03.760Z,57.98
2022-08-16T08:53:30.831Z,57.77
2022-08-16T08:55:59.188Z,58.02
2022-08-16T08:58:34.218Z,57.29
2022-08-16T09:01:01.678Z,57.26
2022-08-16T09:03:28.732Z,57.74
2022-08-16T09:05:59.414Z,56.25
2022-08-16T09:08:27.536Z,55.53
2022-08-16T09:11:02.051Z,54.17
2022-08-16T09:13:32.789Z,54.43
2022-08-16T09:15:59.687Z,55.62
2022-08-16T09:18:35.668Z,54.89
2022-08-16T09:21:04.385Z,54.76
2022-08-16T09:23:36.664Z,52.98
2022-08-16T09:26:43.965Z,53.02
2022-08-16T09:29:15.825Z,52.33
2022-08-16T09:31:41.954Z,51.59
2022-08-16T09:34:09.219Z,49.30
2022-08-16T09:36:37.299Z,48.71
2022-08-16T09:39:15.861Z,47.40
2022-08-16T09:41:43.371Z,46.45
2022-08-16T09:45:12.161Z,46.56
2022-08-16T09:47:10.410Z,45.33
2022-08-16T09:49:37.548Z,46.83
2022-08-16T09:52:07.330Z,45.88
2022-08-16T09:54:36.852Z,46.16
2022-08-16T09:57:03.638Z,48.38
2022-08-16T09:59:31.300Z,48.99
2022-08-16T10:02:25.997Z,51.41
2022-08-16T10:04:54.680Z,48.84
2022-08-16T10:07:21.568Z,48.80
2022-08-16T10:09:55.526Z,48.49
2022-08-16T10:12:45.992Z,47.40
2022-08-16T10:15:21.020Z,46.74
2022-08-16T10:18:00.671Z,48.34
2022-08-16T10:20:30.301Z,48.45
2022-08-16T10:23:02.086Z,46.65
2022-08-16T10:27:17.190Z,46.42
2022-08-16T10:28:28.141Z,46.72
2022-08-16T10:30:58.784Z,47.41
2022-08-16T10:33:27.146Z,47.46
2022-08-16T10:35:57.683Z,48.47
2022-08-16T10:38:28.296Z,48.71
2022-08-16T10:40:54.936Z,49.41
2022-08-16T10:43:21.399Z,49.07
2022-08-16T10:45:59.967Z,50.35
2022-08-16T10:48:28.640Z,50.31
2022-08-16T10:50:58.617Z,50.73
2022-08-16T10:53:32.436Z,52.01
2022-08-16T10:56:06.370Z,51.87
2022-08-16T10:58:51.996Z,50.86
2022-08-16T11:01:40.122Z,51.40
2022-08-16T11:05:04.707Z,50.67
2022-08-16T11:07:43.067Z,50.71
2022-08-16T11:09:43.219Z,50.52
2022-08-16T11:12:14.024Z,50.49
2022-08-16T11:15:11.227Z,50.87
2022-08-16T11:17:28.305Z,51.39
2022-08-16T11:20:01.170Z,51.31
2022-08-16T11:22:48.453Z,51.77
2022-08-16T11:28:08.949Z,51.60
2022-08-16T11:30:39.145Z,52.84
2022-08-16T11:33:06.845Z,52.96
2022-08-16T11:38:46.775Z,52.03
2022-08-16T11:41:09.580Z,51.47
2022-08-16T11:43:37.951Z,51.09
2022-08-16T11:46:45.142Z,52.17
2022-08-16T11:48:56.135Z,51.17
2022-08-16T11:51:22.640Z,50.55
2022-08-16T11:53:49.103Z,50.35
2022-08-16T11:56:15.958Z,49.92
2022-08-16T11:58:51.585Z,50.88
2022-08-16T12:01:18.293Z,49.91
2022-08-16T12:03:56.971Z,48.89
2022-08-16T12:06:25.083Z,49.34
2022-08-16T12:08:53.189Z,49.13
2022-08-16T12:11:20.758Z,47.94
2022-08-16T12:13:49.157Z,47.84
2022-08-16T12:16:20.601Z,48.62
2022-08-16T12:21:18.955Z,49.93
2022-08-16T12:23:46.116Z,50.94
2022-08-16T12:26:13.051Z,50.55
2022-08-16T12:28:54.290Z,50.52
2022-08-16T12:31:22.873Z,50.46
2022-08-16T12:33:49.322Z,49.78
2022-08-16T12:36:20.957Z,49.25
2022-08-16T12:38:48.358Z,49.49
2022-08-16T12:41:24.486Z,49.45
2022-08-16T12:43:52.445Z,49.51
2022-08-16T12:46:23.332Z,49.36
2022-08-16T12:48:58.692Z,49.76
2022-08-16T12:53:54.891Z,49.54
2022-08-16T12:56:25.296Z,50.66
2022-08-16T12:58:52.591Z,50.50
2022-08-16T13:01:28.892Z,50.87
2022-08-16T13:04:20.306Z,50.36
2022-08-16T13:06:45.112Z,51.18
2022-08-16T13:09:25.248Z,51.43
2022-08-16T13:12:15.852Z,50.78
2022-08-16T13:14:43.922Z,50.78
2022-08-16T13:17:17.131Z,51.34
2022-08-16T13:22:32.507Z,50.62
2022-08-16T13:24:59.612Z,50.70
2022-08-16T13:28:01.589Z,50.65
2022-08-16T13:30:35.534Z,49.70
2022-08-16T13:33:00.423Z,50.02
2022-08-16T13:35:27.538Z,48.70
2022-08-16T13:38:01.182Z,48.86
2022-08-16T13:40:29.655Z,48.32
2022-08-16T13:42:56.333Z,47.67
2022-08-16T13:45:23.106Z,46.05
2022-08-16T13:47:52.910Z,44.89
2022-08-16T13:50:30.937Z,44.59
2022-08-16T13:52:58.078Z,44.23
2022-08-16T13:55:24.703Z,46.64
2022-08-16T13:57:53.679Z,44.99
2022-08-16T14:00:37.589Z,46.14
2022-08-16T14:03:04.176Z,46.31
2022-08-16T14:05:30.709Z,45.76
2022-08-16T14:07:57.250Z,46.01
2022-08-16T14:10:23.674Z,46.06
2022-08-16T14:12:51.165Z,45.69
2022-08-16T14:15:20.353Z,46.03
2022-08-16T14:18:15.610Z,46.64
2022-08-16T14:20:33.619Z,47.46
2022-08-16T14:23:00.161Z,47.97
2022-08-16T14:25:27.144Z,48.72
2022-08-16T14:27:55.387Z,46.81
2022-08-16T14:30:25.381Z,47.58
2022-08-16T14:32:52.977Z,47.79
2022-08-16T14:35:36.285Z,47.75
2022-08-16T14:38:17.914Z,48.14
2022-08-16T14:40:47.193Z,47.74
2022-08-16T14:43:19.128Z,48.77
2022-08-16T14:45:46.997Z,49.18
2022-08-16T14:48:21.517Z,48.82
2022-08-16T14:50:51.942Z,48.93
2022-08-16T14:53:22.639Z,49.72
2022-08-16T14:55:49.154Z,48.97
2022-08-16T14:58:19.360Z,50.24
2022-08-16T15:00:47.072Z,49.63
2022-08-16T15:03:13.711Z,49.19
2022-08-16T15:05:41.929Z,49.88
2022-08-16T15:08:09.933Z,47.40
2022-08-16T15:10:42.969Z,48.28
2022-08-16T15:13:13.478Z,48.67
2022-08-16T15:15:44.993Z,46.76
2022-08-16T15:18:27.909Z,47.69
2022-08-16T15:20:54.692Z,48.38
2022-08-16T15:23:21.154Z,48.72
2022-08-16T15:25:58.637Z,48.53
2022-08-16T15:28:32.167Z,49.40
2022-08-16T15:31:03.052Z,49.69
2022-08-16T15:33:35.081Z,51.81
2022-08-16T15:36:02.471Z,52.26
2022-08-16T15:38:58.059Z,53.35
2022-08-16T15:41:34.121Z,54.19
2022-08-16T15:44:10.493Z,54.39
2022-08-16T15:46:54.783Z,54.83
2022-08-16T15:49:34.675Z,54.19
2022-08-16T15:52:12.495Z,53.98
2022-08-16T15:54:53.342Z,54.87
2022-08-16T15:57:22.193Z,55.05
2022-08-16T15:59:55.556Z,55.60
2022-08-16T16:02:29.434Z,54.90
2022-08-16T16:05:01.067Z,54.72
2022-08-16T16:07:33.891Z,54.31
2022-08-16T16:10:03.686Z,53.93
2022-08-16T16:12:50.799Z,55.47
2022-08-16T16:15:18.371Z,54.17
2022-08-16T16:17:46.887Z,53.27
2022-08-16T16:20:20.403Z,53.01
2022-08-16T16:22:47.725Z,51.40
2022-08-16T16:25:15.989Z,49.93
2022-08-16T16:27:44.013Z,48.78
2022-08-16T16:30:37.304Z,47.67
2022-08-16T16:32:59.434Z,45.47
2022-08-16T16:35:28.266Z,44.59
2022-08-16T16:37:59.674Z,44.02
2022-08-16T16:40:28.968Z,43.44
2022-08-16T16:43:00.029Z,44.93
2022-08-16T16:45:34.570Z,45.09
2022-08-16T16:48:11.775Z,46.11
2022-08-16T16:50:40.382Z,47.00
2022-08-16T16:53:16.717Z,47.47
2022-08-16T16:55:44.106Z,48.15
2022-08-16T16:58:36.663Z,48.81
2022-08-16T17:01:04.678Z,50.07
2022-08-16T17:03:32.659Z,50.66
2022-08-16T17:06:09.314Z,51.55
2022-08-16T17:08:41.380Z,51.88
2022-08-16T17:11:09.633Z,53.74
2022-08-16T17:13:36.882Z,55.26
2022-08-16T17:16:04.907Z,55.40
2022-08-16T17:19:15.057Z,55.57
2022-08-16T17:21:18.643Z,54.48
2022-08-16T17:23:59.226Z,55.64
2022-08-16T17:26:29.963Z,55.21
2022-08-16T17:29:02.550Z,55.57
2022-08-16T17:31:43.261Z,56.48
2022-08-16T17:34:28.859Z,57.39
2022-08-16T17:39:27.264Z,57.47
2022-08-16T17:39:53.411Z,57.66
2022-08-16T17:42:27.069Z,57.30
2022-08-16T17:44:54.687Z,57.54
2022-08-16T17:47:21.880Z,58.23
2022-08-16T17:49:48.491Z,58.79
2022-08-16T17:52:15.291Z,58.57
2022-08-16T17:54:41.786Z,58.59
2022-08-16T17:57:08.308Z,58.51
2022-08-16T17:59:40.924Z,59.19
2022-08-16T18:02:42.381Z,59.23
2022-08-16T18:04:55.590Z,60.05
2022-08-16T18:07:22.142Z,60.08
2022-08-16T18:09:48.641Z,59.93
2022-08-16T18:12:44.263Z,60.58
2022-08-16T18:15:08.661Z,61.14
2022-08-16T18:17:35.161Z,61.38
2022-08-16T18:20:02.237Z,61.41
2022-08-16T18:22:30.966Z,61.59
2022-08-16T18:24:58.190Z,62.54
2022-08-16T18:27:26.875Z,62.31
2022-08-16T18:29:54.078Z,62.04
2022-08-16T18:32:23.484Z,62.13
2022-08-16T18:34:52.481Z,62.47
2022-08-16T18:37:20.614Z,62.66
2022-08-16T18:39:47.078Z,63.04
2022-08-16T18:42:14.742Z,63.03
2022-08-16T18:44:42.743Z,62.95
2022-08-16T18:47:09.366Z,63.35
2022-08-16T18:49:35.982Z,63.86
2022-08-16T18:52:05.063Z,64.11
2022-08-16T18:54:33.398Z,63.79
2022-08-16T18:57:01.516Z,64.52
2022-08-16T18:59:31.108Z,64.46
2022-08-16T19:02:04.044Z,64.16
2022-08-16T19:04:56.680Z,63.88
2022-08-16T19:07:23.384Z,63.44
2022-08-16T19:09:57.786Z,63.64
2022-08-16T19:12:38.020Z,63.68
2022-08-16T19:15:11.959Z,63.77
2022-08-16T19:17:39.716Z,63.81
2022-08-16T19:20:10.517Z,63.62
2022-08-16T19:23:01.420Z,64.24
2022-08-16T19:25:46.337Z,64.92
2022-08-16T19:28:21.750Z,64.99
2022-08-16T19:30:58.291Z,65.13
2022-08-16T19:33:24.701Z,65.91
2022-08-16T19:35:51.088Z,65.81
2022-08-16T19:38:17.512Z,66.46
2022-08-16T19:40:44.081Z,66.48
2022-08-16T19:43:11.196Z,66.22
2022-08-16T19:45:41.428Z,66.38
2022-08-16T19:48:10.400Z,66.84
2022-08-16T19:50:37.097Z,66.47
2022-08-16T19:53:18.660Z,66.88
2022-08-16T19:55:47.272Z,67.04
2022-08-16T19:58:15.347Z,67.85
2022-08-16T20:00:46.920Z,67.85
2022-08-16T20:03:20.672Z,67.68
2022-08-16T20:05:48.193Z,67.54
2022-08-16T20:08:16.497Z,67.88
2022-08-16T20:10:45.173Z,67.81
2022-08-16T20:13:14.057Z,67.76
2022-08-16T20:15:41.233Z,68.10
2022-08-16T20:18:24.489Z,68.01
2022-08-16T20:20:52.496Z,68.16
2022-08-16T20:23:24.815Z,68.00
2022-08-16T20:25:53.709Z,68.14
2022-08-16T20:28:40.657Z,68.07
2022-08-16T20:31:06.546Z,68.79
2022-08-16T20:33:32.946Z,69.23
2022-08-16T20:35:59.384Z,69.04
2022-08-16T20:38:25.802Z,69.10
2022-08-16T20:40:52.277Z,69.24
2022-08-16T20:43:19.016Z,69.20
2022-08-16T20:45:46.744Z,69.07
2022-08-16T20:48:13.760Z,69.77
2022-08-16T20:50:40.665Z,69.71
2022-08-16T20:53:07.862Z,70.01
2022-08-16T20:55:36.104Z,69.79
2022-08-16T20:58:02.722Z,70.29
2022-08-16T21:00:29.428Z,70.38
2022-08-16T21:02:55.884Z,70.74
2022-08-16T21:05:25.411Z,70.87
2022-08-16T21:07:57.657Z,70.87
2022-08-16T21:10:24.201Z,70.71
2022-08-16T21:12:54.449Z,70.72
2022-08-16T21:15:22.113Z,71.44
2022-08-16T21:17:48.517Z,70.94
2022-08-16T21:20:15.492Z,70.68
2022-08-16T21:22:42.446Z,70.90
2022-08-16T21:25:12.564Z,71.50
2022-08-16T21:28:36.713Z,70.93
2022-08-16T21:30:32.421Z,71.29
2022-08-16T21:33:07.970Z,71.29
2022-08-16T21:35:34.957Z,71.36
2022-08-16T21:38:28.179Z,71.69
2022-08-16T21:40:48.173Z,71.52
2022-08-16T21:43:20.408Z,72.08
2022-08-16T21:45:47.725Z,71.62
2022-08-16T21:48:14.243Z,71.69
2022-08-16T21:50:42.115Z,71.79
2022-08-16T21:53:14.141Z,72.38
2022-08-16T21:55:42.786Z,72.15
2022-08-16T21:58:09.521Z,72.83
2022-08-16T22:00:35.991Z,72.83
2022-08-16T22:03:04.765Z,73.28
2022-08-16T22:05:32.450Z,73.58
2022-08-16T22:08:01.453Z,73.62
2022-08-16T22:11:07.768Z,73.98
2022-08-16T22:13:20.519Z,74.60
2022-08-16T22:15:47.394Z,73.75
2022-08-16T22:18:14.361Z,73.59
2022-08-16T22:20:41.450Z,73.62
2022-08-16T22:23:16.467Z,73.91
2022-08-16T22:25:45.229Z,74.07
2022-08-16T22:28:12.800Z,74.19
2022-08-16T22:30:39.975Z,74.31
2022-08-16T22:33:27.582Z,74.81
2022-08-16T22:35:59.741Z,74.63
2022-08-16T22:38:53.589Z,74.51
2022-08-16T22:41:13.933Z,75.36
2022-08-16T22:43:44.788Z,74.83
2022-08-16T22:46:11.198Z,75.16
2022-08-16T22:48:39.227Z,75.94
2022-08-16T22:51:07.757Z,75.39
2022-08-16T22:53:34.199Z,75.53
2022-08-16T22:56:04.400Z,75.29
2022-08-16T22:58:34.211Z,75.25
2022-08-16T23:01:05.682Z,75.38
2022-08-16T23:03:32.320Z,74.79
2022-08-16T23:06:01.575Z,75.44
2022-08-16T23:08:38.652Z,75.13
2022-08-16T23:11:10.942Z,75.16
2022-08-16T23:13:38.281Z,75.29
2022-08-16T23:16:21.426Z,75.13
2022-08-16T23:18:48.486Z,74.89
2022-08-16T23:21:15.381Z,75.00
2022-08-16T23:23:41.815Z,75.05
2022-08-16T23:26:46.563Z,75.64
2022-08-16T23:28:54.875Z,75.58
2022-08-16T23:31:21.267Z,75.80
2022-08-16T23:33:47.658Z,75.92
2022-08-16T23:36:14.079Z,76.14
2022-08-16T23:38:41.181Z,75.40
2022-08-16T23:41:11.505Z,75.11
2022-08-16T23:43:41.632Z,75.07
2022-08-16T23:46:11.554Z,75.43
2022-08-16T23:49:56.847Z,75.67
2022-08-16T23:51:24.377Z,75.48
2022-08-16T23:53:50.873Z,75.17
2022-08-16T23:56:20.022Z,75.58
2022-08-16T23:58:48.850Z,75.23
